createdAt,value
2023-03-15T00:02:13.742Z,98900.00
2023-03-15T00:04:42.977Z,98894.00
2023-03-15T00:07:12.553Z,98898.00
2023-03-15T00:09:41.813Z,98909.00
2023-03-15T00:12:13.200Z,98914.00
2023-03-15T00:14:44.011Z,98913.00
2023-03-15T00:17:13.638Z,98921.00
2023-03-15T00:19:42.900Z,98915.00
2023-03-15T00:22:12.470Z,98908.00
2023-03-15T00:24:41.787Z,98913.00
2023-03-15T00:27:11.393Z,98916.00
2023-03-15T00:29:40.699Z,98923.00
2023-03-15T00:32:10.027Z,98927.00
2023-03-15T00:34:39.266Z,98923.00
2023-03-15T00:37:08.672Z,98930.00
2023-03-15T00:39:39.597Z,98932.00
2023-03-15T00:42:09.094Z,98952.00
2023-03-15T00:44:41.443Z,98952.00
2023-03-15T00:47:15.836Z,98960.00
2023-03-15T00:49:45.220Z,98955.00
2023-03-15T00:52:15.124Z,98963.00
2023-03-15T00:54:45.299Z,98960.00
2023-03-15T00:57:14.640Z,98964.00
2023-03-15T00:59:45.976Z,98965.00
2023-03-15T01:02:15.463Z,98966.00
2023-03-15T01:04:44.609Z,98976.00
2023-03-15T01:07:13.821Z,98983.00
2023-03-15T01:09:43.291Z,98983.00
2023-03-15T01:12:12.639Z,98988.00
2023-03-15T01:14:41.782Z,99000.00
2023-03-15T01:17:11.027Z,99000.00
2023-03-15T01:19:40.261Z,99000.00
2023-03-15T01:22:09.492Z,98999.00
2023-03-15T01:28:02.918Z,98997.00
2023-03-15T01:30:32.106Z,99008.00
2023-03-15T01:33:01.565Z,99014.00
2023-03-15T01:35:30.821Z,99017.00
2023-03-15T01:38:11.921Z,99016.00
2023-03-15T01:40:52.901Z,99023.00
2023-03-15T01:43:26.628Z,99034.00
2023-03-15T01:46:27.763Z,99027.00
2023-03-15T01:49:17.266Z,99033.00
2023-03-15T01:52:14.322Z,99032.00
2023-03-15T01:55:12.324Z,99035.00
2023-03-15T01:57:52.500Z,99037.00
2023-03-15T02:00:26.195Z,99044.00
2023-03-15T02:03:07.522Z,99039.00
2023-03-15T02:06:19.276Z,99044.00
2023-03-15T02:09:06.899Z,99048.00
2023-03-15T02:11:37.449Z,99051.00
2023-03-15T02:14:07.940Z,99057.00
2023-03-15T02:16:37.796Z,99048.00
2023-03-15T02:19:14.458Z,99060.00
2023-03-15T02:21:49.452Z,99057.00
2023-03-15T02:24:57.315Z,99062.00
2023-03-15T02:27:36.520Z,99059.00
2023-03-15T02:30:08.476Z,99058.00
2023-03-15T02:32:37.840Z,99059.00
2023-03-15T02:35:10.692Z,99064.00
2023-03-15T02:37:39.976Z,99069.00
2023-03-15T02:40:23.228Z,99070.00
2023-03-15T02:42:57.470Z,99064.00
2023-03-15T02:45:30.429Z,99063.00
2023-03-15T02:48:01.074Z,99068.00
2023-03-15T02:50:30.734Z,99066.00
2023-03-15T02:52:59.929Z,99063.00
2023-03-15T02:55:29.082Z,99066.00
2023-03-15T02:57:58.344Z,99057.00
2023-03-15T03:00:27.951Z,99065.00
2023-03-15T03:03:15.500Z,99055.00
2023-03-15T03:05:44.603Z,99058.00
2023-03-15T03:08:17.395Z,99059.00
2023-03-15T03:10:46.555Z,99057.00
2023-03-15T03:13:15.874Z,99048.00
2023-03-15T03:15:46.562Z,99051.00
2023-03-15T03:18:15.810Z,99044.00
2023-03-15T03:20:49.761Z,99048.00
2023-03-15T03:23:19.861Z,99043.00
2023-03-15T03:25:49.133Z,99050.00
2023-03-15T03:28:18.224Z,99039.00
2023-03-15T03:30:47.381Z,99042.00
2023-03-15T03:33:16.540Z,99038.00
2023-03-15T03:35:46.181Z,99035.00
2023-03-15T03:38:16.330Z,99033.00
2023-03-15T03:40:47.090Z,99032.00
2023-03-15T03:43:16.339Z,99026.00
2023-03-15T03:45:45.561Z,99026.00
2023-03-15T03:48:14.832Z,99023.00
2023-03-15T03:50:44.084Z,99028.00
2023-03-15T03:53:13.326Z,99019.00
2023-03-15T03:55:43.653Z,99015.00
2023-03-15T03:58:12.858Z,99014.00
2023-03-15T04:00:42.855Z,99011.00
2023-03-15T04:03:12.024Z,99006.00
2023-03-15T04:05:42.843Z,99003.00
2023-03-15T04:08:11.957Z,99008.00
2023-03-15T04:10:41.150Z,99007.00
2023-03-15T04:13:10.414Z,99013.00
2023-03-15T04:15:39.649Z,98997.00
2023-03-15T04:18:08.937Z,98992.00
2023-03-15T04:20:38.477Z,98990.00
2023-03-15T04:23:08.330Z,98979.00
2023-03-15T04:25:37.902Z,98979.00
2023-03-15T04:28:11.536Z,98980.00
2023-03-15T04:30:40.726Z,98980.00
2023-03-15T04:33:11.892Z,98968.00
2023-03-15T04:35:43.529Z,98969.00
2023-03-15T04:38:12.801Z,98962.00
2023-03-15T04:40:43.800Z,98954.00
2023-03-15T04:43:13.026Z,98953.00
2023-03-15T04:45:42.185Z,98955.00
2023-03-15T04:48:11.919Z,98950.00
2023-03-15T04:50:41.198Z,98946.00
2023-03-15T04:53:10.369Z,98942.00
2023-03-15T04:55:39.463Z,98935.00
2023-03-15T04:58:08.664Z,98935.00
2023-03-15T05:00:37.875Z,98927.00
2023-03-15T05:03:07.241Z,98929.00
2023-03-15T05:05:36.428Z,98918.00
2023-03-15T05:08:05.852Z,98917.00
2023-03-15T05:10:35.272Z,98913.00
2023-03-15T05:13:04.468Z,98908.00
2023-03-15T05:15:33.943Z,98903.00
2023-03-15T05:18:03.088Z,98890.00
2023-03-15T05:20:33.063Z,98880.00
2023-03-15T05:23:02.332Z,98872.00
2023-03-15T05:25:31.906Z,98877.00
2023-03-15T05:28:01.059Z,98876.00
2023-03-15T05:30:30.215Z,98877.00
2023-03-15T05:32:59.875Z,98866.00
2023-03-15T05:35:29.388Z,98861.00
2023-03-15T05:37:58.658Z,98855.00
2023-03-15T05:40:30.739Z,98855.00
2023-03-15T05:43:00.447Z,98855.00
2023-03-15T05:45:29.623Z,98844.00
2023-03-15T05:47:58.782Z,98841.00
2023-03-15T05:50:29.249Z,98837.00
2023-03-15T05:52:59.513Z,98832.00
2023-03-15T05:55:28.813Z,98830.00
2023-03-15T05:57:57.969Z,98825.00
2023-03-15T06:00:27.133Z,98822.00
2023-03-15T06:02:56.344Z,98818.00
2023-03-15T06:05:25.824Z,98825.00
2023-03-15T06:07:54.994Z,98809.00
2023-03-15T06:10:24.383Z,98807.00
2023-03-15T06:12:53.811Z,98813.00
2023-03-15T06:15:22.983Z,98803.00
2023-03-15T06:17:52.405Z,98801.00
2023-03-15T06:20:21.790Z,98795.00
2023-03-15T06:22:51.076Z,98784.00
2023-03-15T06:25:20.403Z,98774.00
2023-03-15T06:27:49.584Z,98781.00
2023-03-15T06:30:19.016Z,98773.00
2023-03-15T06:32:48.386Z,98769.00
2023-03-15T06:35:17.729Z,98759.00
2023-03-15T06:37:46.909Z,98758.00
2023-03-15T06:40:16.732Z,98753.00
2023-03-15T06:42:45.919Z,98747.00
2023-03-15T06:45:17.382Z,98738.00
2023-03-15T06:47:46.631Z,98733.00
2023-03-15T06:50:15.847Z,98728.00
2023-03-15T06:52:45.009Z,98727.00
2023-03-15T06:55:18.978Z,98730.00
2023-03-15T06:57:48.219Z,98726.00
2023-03-15T07:00:18.148Z,98726.00
2023-03-15T07:02:47.705Z,98721.00
2023-03-15T07:05:16.971Z,98712.00
2023-03-15T07:07:46.248Z,98717.00
2023-03-15T07:10:15.464Z,98701.00
2023-03-15T07:12:45.283Z,98706.00
2023-03-15T07:15:17.028Z,98698.00
2023-03-15T07:17:46.631Z,98708.00
2023-03-15T07:20:16.164Z,98701.00
2023-03-15T07:22:46.631Z,98691.00
2023-03-15T07:25:15.996Z,98690.00
2023-03-15T07:27:45.436Z,98691.00
2023-03-15T07:30:15.395Z,98676.00
2023-03-15T07:32:44.827Z,98673.00
2023-03-15T07:35:14.748Z,98674.00
2023-03-15T07:37:44.814Z,98675.00
2023-03-15T07:40:16.941Z,98656.00
2023-03-15T07:42:46.911Z,98670.00
2023-03-15T07:45:16.263Z,98669.00
2023-03-15T07:47:45.865Z,98664.00
2023-03-15T07:50:17.079Z,98665.00
2023-03-15T07:52:46.485Z,98662.00
2023-03-15T07:55:15.694Z,98661.00
2023-03-15T07:57:44.824Z,98663.00
2023-03-15T08:00:15.551Z,98665.00
2023-03-15T08:02:44.920Z,98667.00
2023-03-15T08:05:14.118Z,98660.00
2023-03-15T08:07:43.388Z,98663.00
2023-03-15T08:10:13.322Z,98662.00
2023-03-15T08:12:44.098Z,98666.00
2023-03-15T08:15:15.383Z,98654.00
2023-03-15T08:17:45.078Z,98651.00
2023-03-15T08:20:15.954Z,98656.00
2023-03-15T08:22:50.340Z,98645.00
2023-03-15T08:25:25.264Z,98649.00
2023-03-15T08:27:55.386Z,98648.00
2023-03-15T08:30:25.431Z,98638.00
2023-03-15T08:32:55.228Z,98646.00
2023-03-15T08:35:24.647Z,98637.00
2023-03-15T08:37:54.333Z,98637.00
2023-03-15T08:40:26.779Z,98642.00
2023-03-15T08:42:57.221Z,98639.00
2023-03-15T08:45:27.936Z,98642.00
2023-03-15T08:48:01.560Z,98635.00
2023-03-15T08:50:32.786Z,98640.00
2023-03-15T08:53:01.890Z,98634.00
2023-03-15T08:55:31.010Z,98639.00
2023-03-15T08:58:03.424Z,98637.00
2023-03-15T09:00:33.880Z,98642.00
2023-03-15T09:03:03.232Z,98636.00
2023-03-15T09:05:32.351Z,98638.00
2023-03-15T09:08:02.869Z,98631.00
2023-03-15T09:10:32.250Z,98635.00
2023-03-15T09:13:01.807Z,98641.00
2023-03-15T09:15:31.573Z,98633.00
2023-03-15T09:18:00.688Z,98635.00
2023-03-15T09:20:30.625Z,98645.00
2023-03-15T09:23:00.763Z,98639.00
2023-03-15T09:25:30.548Z,98638.00
2023-03-15T09:28:02.648Z,98640.00
2023-03-15T09:30:32.234Z,98640.00
2023-03-15T09:33:01.731Z,98640.00
2023-03-15T09:35:30.957Z,98647.00
2023-03-15T09:38:00.186Z,98641.00
2023-03-15T09:40:42.608Z,98648.00
2023-03-15T09:43:17.283Z,98649.00
2023-03-15T09:46:32.945Z,98651.00
2023-03-15T09:49:25.017Z,98655.00
2023-03-15T09:52:13.979Z,98648.00
2023-03-15T09:54:59.726Z,98654.00
2023-03-15T09:57:50.150Z,98654.00
2023-03-15T10:00:34.307Z,98661.00
2023-03-15T10:03:08.122Z,98666.00
2023-03-15T10:05:48.642Z,98662.00
2023-03-15T10:08:21.248Z,98661.00
2023-03-15T10:11:46.884Z,98661.00
2023-03-15T10:14:53.883Z,98661.00
2023-03-15T10:18:11.135Z,98662.00
2023-03-15T10:20:49.298Z,98661.00
2023-03-15T10:23:55.932Z,98665.00
2023-03-15T10:26:35.960Z,98661.00
2023-03-15T10:29:15.519Z,98667.00
2023-03-15T10:31:48.275Z,98673.00
2023-03-15T10:34:18.143Z,98675.00
2023-03-15T10:36:56.240Z,98678.00
2023-03-15T10:39:26.936Z,98677.00
2023-03-15T10:41:56.093Z,98689.00
2023-03-15T10:44:29.174Z,98677.00
2023-03-15T10:47:22.106Z,98686.00
2023-03-15T10:49:58.823Z,98680.00
2023-03-15T10:52:32.688Z,98681.00
2023-03-15T10:55:08.682Z,98683.00
2023-03-15T10:57:51.969Z,98690.00
2023-03-15T11:00:37.644Z,98696.00
2023-03-15T11:03:20.671Z,98692.00
2023-03-15T11:05:56.770Z,98692.00
2023-03-15T11:08:42.943Z,98697.00
2023-03-15T11:11:12.380Z,98694.00
2023-03-15T11:13:55.828Z,98703.00
2023-03-15T11:16:25.233Z,98697.00
2023-03-15T11:19:01.438Z,98695.00
2023-03-15T11:21:35.114Z,98701.00
2023-03-15T11:24:08.009Z,98707.00
2023-03-15T11:26:52.431Z,98702.00
2023-03-15T11:29:31.003Z,98701.00
2023-03-15T11:32:03.478Z,98703.00
2023-03-15T11:35:12.228Z,98703.00
2023-03-15T11:37:53.002Z,98713.00
2023-03-15T11:40:24.898Z,98715.00
2023-03-15T11:42:59.677Z,98713.00
2023-03-15T11:46:09.801Z,98707.00
2023-03-15T11:48:59.960Z,98716.00
2023-03-15T11:51:35.878Z,98713.00
2023-03-15T11:54:13.024Z,98709.00
2023-03-15T11:57:02.464Z,98703.00
2023-03-15T11:59:35.254Z,98704.00
2023-03-15T12:02:16.348Z,98714.00
2023-03-15T12:05:01.810Z,98707.00
2023-03-15T12:07:40.005Z,98716.00
2023-03-15T12:10:33.549Z,98723.00
2023-03-15T12:13:23.929Z,98723.00
2023-03-15T12:15:54.374Z,98731.00
2023-03-15T12:18:47.285Z,98731.00
2023-03-15T12:21:27.733Z,98739.00
2023-03-15T12:24:37.121Z,98739.00
2023-03-15T12:27:16.016Z,98748.00
2023-03-15T12:29:48.741Z,98752.00
2023-03-15T12:32:20.364Z,98757.00
2023-03-15T12:34:55.192Z,98745.00
2023-03-15T12:37:54.710Z,98755.00
2023-03-15T12:40:29.757Z,98760.00
2023-03-15T12:42:58.837Z,98764.00
2023-03-15T12:45:46.216Z,98772.00
2023-03-15T12:48:22.314Z,98776.00
2023-03-15T12:50:56.587Z,98781.00
2023-03-15T12:53:39.395Z,98774.00
2023-03-15T12:56:30.667Z,98792.00
2023-03-15T12:59:13.623Z,98797.00
2023-03-15T13:01:43.747Z,98797.00
2023-03-15T13:04:15.922Z,98795.00
2023-03-15T13:07:14.091Z,98803.00
2023-03-15T13:10:12.077Z,98817.00
2023-03-15T13:12:50.972Z,98821.00
2023-03-15T13:15:40.742Z,98825.00
2023-03-15T13:18:22.895Z,98830.00
2023-03-15T13:21:38.188Z,98835.00
2023-03-15T13:24:23.945Z,98848.00
2023-03-15T13:27:08.625Z,98854.00
2023-03-15T13:29:38.317Z,98855.00
2023-03-15T13:32:20.663Z,98853.00
2023-03-15T13:34:50.847Z,98852.00
2023-03-15T13:37:27.761Z,98854.00
2023-03-15T13:40:13.871Z,98864.00
2023-03-15T13:42:44.288Z,98871.00
2023-03-15T13:45:17.437Z,98869.00
2023-03-15T13:47:48.595Z,98866.00
2023-03-15T13:50:22.531Z,98872.00
2023-03-15T13:52:52.035Z,98870.00
2023-03-15T13:55:26.232Z,98874.00
2023-03-15T13:58:06.435Z,98870.00
2023-03-15T14:00:37.882Z,98875.00
2023-03-15T14:03:18.425Z,98880.00
2023-03-15T14:05:59.658Z,98885.00
2023-03-15T14:08:39.386Z,98884.00
2023-03-15T14:11:13.784Z,98891.00
2023-03-15T14:14:05.192Z,98887.00
2023-03-15T14:17:03.502Z,98882.00
2023-03-15T14:19:37.814Z,98881.00
2023-03-15T14:22:19.277Z,98885.00
2023-03-15T14:24:53.396Z,98880.00
2023-03-15T14:27:29.006Z,98893.00
2023-03-15T14:30:02.286Z,98896.00
2023-03-15T14:32:38.563Z,98890.00
2023-03-15T14:35:33.523Z,98900.00
2023-03-15T14:38:23.976Z,98892.00
2023-03-15T14:40:55.202Z,98891.00
2023-03-15T14:43:24.573Z,98895.00
2023-03-15T14:45:53.714Z,98890.00
2023-03-15T14:48:41.723Z,98894.00
2023-03-15T14:51:19.451Z,98897.00
2023-03-15T14:53:52.649Z,98899.00
2023-03-15T14:56:22.243Z,98906.00
2023-03-15T14:58:55.061Z,98903.00
2023-03-15T15:01:46.941Z,98901.00
2023-03-15T15:04:17.222Z,98902.00
2023-03-15T15:06:53.611Z,98908.00
2023-03-15T15:09:31.843Z,98904.00
2023-03-15T15:12:01.035Z,98893.00
2023-03-15T15:14:30.247Z,98894.00
2023-03-15T15:16:59.686Z,98889.00
2023-03-15T15:19:28.820Z,98888.00
2023-03-15T15:21:58.880Z,98890.00
2023-03-15T15:24:29.213Z,98893.00
2023-03-15T15:27:00.808Z,98896.00
2023-03-15T15:29:30.128Z,98898.00
2023-03-15T15:32:01.971Z,98888.00
2023-03-15T15:34:31.124Z,98886.00
2023-03-15T15:37:00.468Z,98889.00
2023-03-15T15:39:30.586Z,98892.00
2023-03-15T15:41:59.748Z,98881.00
2023-03-15T15:44:29.106Z,98884.00
2023-03-15T15:46:58.565Z,98885.00
2023-03-15T15:49:27.975Z,98890.00
2023-03-15T15:51:57.329Z,98883.00
2023-03-15T15:54:36.595Z,98886.00
2023-03-15T15:57:07.315Z,98883.00
2023-03-15T15:59:38.162Z,98882.00
2023-03-15T16:02:23.135Z,98881.00
2023-03-15T16:04:52.788Z,98886.00
2023-03-15T16:07:21.987Z,98889.00
2023-03-15T16:09:58.002Z,98885.00
2023-03-15T16:12:28.266Z,98891.00
2023-03-15T16:14:58.424Z,98892.00
2023-03-15T16:17:28.279Z,98886.00
2023-03-15T16:19:57.735Z,98885.00
2023-03-15T16:22:28.585Z,98890.00
2023-03-15T16:25:02.464Z,98872.00
2023-03-15T16:27:32.459Z,98878.00
2023-03-15T16:30:03.770Z,98881.00
2023-03-15T16:32:44.554Z,98876.00
2023-03-15T16:35:18.537Z,98886.00
2023-03-15T16:37:50.152Z,98878.00
2023-03-15T16:40:31.557Z,98875.00
2023-03-15T16:43:01.640Z,98873.00
2023-03-15T16:45:30.909Z,98873.00
2023-03-15T16:48:00.067Z,98868.00
2023-03-15T16:50:34.628Z,98869.00
2023-03-15T16:53:09.251Z,98872.00
2023-03-15T16:55:41.957Z,98865.00
2023-03-15T16:58:20.445Z,98875.00
2023-03-15T17:00:49.611Z,98867.00
2023-03-15T17:03:19.281Z,98863.00
2023-03-15T17:05:50.221Z,98864.00
2023-03-15T17:08:23.021Z,98864.00
2023-03-15T17:10:52.460Z,98865.00
2023-03-15T17:13:29.906Z,98853.00
2023-03-15T17:15:59.143Z,98851.00
2023-03-15T17:18:30.973Z,98848.00
2023-03-15T17:21:00.196Z,98846.00
2023-03-15T17:23:30.212Z,98838.00
2023-03-15T17:26:00.091Z,98835.00
2023-03-15T17:28:29.778Z,98826.00
2023-03-15T17:31:14.238Z,98831.00
2023-03-15T17:33:48.782Z,98825.00
2023-03-15T17:36:24.717Z,98823.00
2023-03-15T17:38:55.835Z,98826.00
2023-03-15T17:41:38.372Z,98826.00
2023-03-15T17:44:07.853Z,98823.00
2023-03-15T17:46:37.114Z,98826.00
2023-03-15T17:49:10.005Z,98823.00
2023-03-15T17:51:40.236Z,98810.00
2023-03-15T17:54:23.012Z,98817.00
2023-03-15T17:56:52.592Z,98813.00
2023-03-15T17:59:21.792Z,98812.00
2023-03-15T18:01:52.260Z,98814.00
2023-03-15T18:04:22.747Z,98800.00
2023-03-15T18:06:51.950Z,98797.00
2023-03-15T18:09:23.171Z,98797.00
2023-03-15T18:11:52.346Z,98805.00
2023-03-15T18:14:21.583Z,98785.00
2023-03-15T18:16:50.922Z,98792.00
2023-03-15T18:19:20.112Z,98786.00
2023-03-15T18:21:49.244Z,98792.00
2023-03-15T18:24:18.624Z,98783.00
2023-03-15T18:26:48.953Z,98781.00
2023-03-15T18:29:18.062Z,98779.00
2023-03-15T18:31:47.303Z,98782.00
2023-03-15T18:34:18.162Z,98782.00
2023-03-15T18:36:47.340Z,98781.00
2023-03-15T18:39:16.806Z,98777.00
2023-03-15T18:41:46.068Z,98775.00
2023-03-15T18:44:15.202Z,98772.00
2023-03-15T18:46:47.016Z,98776.00
2023-03-15T18:49:21.811Z,98773.00
2023-03-15T18:51:50.989Z,98768.00
2023-03-15T18:54:20.207Z,98758.00
2023-03-15T18:56:49.370Z,98764.00
2023-03-15T18:59:19.273Z,98766.00
2023-03-15T19:01:48.505Z,98765.00
2023-03-15T19:04:17.655Z,98766.00
2023-03-15T19:06:46.815Z,98763.00
2023-03-15T19:09:16.247Z,98764.00
2023-03-15T19:11:45.376Z,98762.00
2023-03-15T19:14:14.562Z,98765.00
2023-03-15T19:16:43.761Z,98764.00
2023-03-15T19:19:12.902Z,98767.00
2023-03-15T19:21:43.369Z,98763.00
2023-03-15T19:24:13.037Z,98763.00
2023-03-15T19:26:42.859Z,98765.00
2023-03-15T19:29:12.105Z,98763.00
2023-03-15T19:31:41.342Z,98754.00
2023-03-15T19:34:10.579Z,98758.00
2023-03-15T19:36:39.821Z,98761.00
2023-03-15T19:39:11.357Z,98752.00
2023-03-15T19:41:42.468Z,98751.00
2023-03-15T19:44:12.705Z,98750.00
2023-03-15T19:46:42.448Z,98753.00
2023-03-15T19:49:11.682Z,98755.00
2023-03-15T19:51:40.986Z,98764.00
2023-03-15T19:54:10.250Z,98758.00
2023-03-15T19:56:39.515Z,98760.00
2023-03-15T19:59:10.164Z,98762.00
2023-03-15T20:01:39.535Z,98768.00
2023-03-15T20:04:08.869Z,98762.00
2023-03-15T20:06:38.061Z,98758.00
2023-03-15T20:09:07.217Z,98761.00
2023-03-15T20:11:36.387Z,98755.00
2023-03-15T20:14:05.767Z,98761.00
2023-03-15T20:16:35.088Z,98760.00
2023-03-15T20:19:04.296Z,98754.00
2023-03-15T20:21:34.723Z,98755.00
2023-03-15T20:24:05.214Z,98759.00
2023-03-15T20:26:34.513Z,98760.00
2023-03-15T20:29:04.329Z,98759.00
2023-03-15T20:31:34.663Z,98756.00
2023-03-15T20:34:06.670Z,98758.00
2023-03-15T20:36:36.392Z,98761.00
2023-03-15T20:39:06.620Z,98761.00
2023-03-15T20:41:35.885Z,98755.00
2023-03-15T20:44:05.080Z,98765.00
2023-03-15T20:46:34.958Z,98772.00
2023-03-15T20:49:04.149Z,98773.00
2023-03-15T20:51:33.365Z,98777.00
2023-03-15T20:54:02.580Z,98773.00
2023-03-15T20:56:31.846Z,98776.00
2023-03-15T20:59:03.166Z,98782.00
2023-03-15T21:01:34.229Z,98781.00
2023-03-15T21:04:03.446Z,98776.00
2023-03-15T21:06:32.660Z,98771.00
2023-03-15T21:09:02.455Z,98774.00
2023-03-15T21:11:31.717Z,98792.00
2023-03-15T21:14:01.245Z,98799.00
2023-03-15T21:16:30.425Z,98797.00
2023-03-15T21:18:59.538Z,98801.00
2023-03-15T21:21:29.536Z,98803.00
2023-03-15T21:23:58.820Z,98804.00
2023-03-15T21:26:27.981Z,98797.00
2023-03-15T21:28:57.062Z,98806.00
2023-03-15T21:31:29.268Z,98796.00
2023-03-15T21:33:58.496Z,98799.00
2023-03-15T21:36:27.659Z,98804.00
2023-03-15T21:38:56.815Z,98802.00
2023-03-15T21:41:26.072Z,98806.00
2023-03-15T21:43:55.177Z,98807.00
2023-03-15T21:46:24.878Z,98812.00
2023-03-15T21:48:54.137Z,98813.00
2023-03-15T21:51:23.316Z,98821.00
2023-03-15T21:53:52.624Z,98829.00
2023-03-15T21:56:26.845Z,98823.00
2023-03-15T21:58:56.927Z,98826.00
2023-03-15T22:01:26.512Z,98830.00
2023-03-15T22:03:55.719Z,98827.00
2023-03-15T22:06:24.934Z,98839.00
2023-03-15T22:08:54.102Z,98843.00
2023-03-15T22:11:23.826Z,98853.00
2023-03-15T22:13:53.720Z,98861.00
2023-03-15T22:16:22.966Z,98858.00
2023-03-15T22:18:52.119Z,98852.00
2023-03-15T22:21:21.358Z,98854.00
2023-03-15T22:23:52.325Z,98857.00
2023-03-15T22:26:23.379Z,98855.00
2023-03-15T22:28:53.009Z,98868.00
2023-03-15T22:31:22.275Z,98864.00
2023-03-15T22:33:51.540Z,98867.00
2023-03-15T22:36:20.996Z,98874.00
2023-03-15T22:38:50.958Z,98874.00
2023-03-15T22:41:21.738Z,98879.00
2023-03-15T22:43:53.516Z,98887.00
2023-03-15T22:46:23.263Z,98887.00
2023-03-15T22:48:52.456Z,98891.00
2023-03-15T22:51:21.759Z,98891.00
2023-03-15T22:53:51.097Z,98894.00
2023-03-15T22:56:20.456Z,98894.00
2023-03-15T22:58:49.808Z,98902.00
2023-03-15T23:01:18.999Z,98910.00
2023-03-15T23:03:48.252Z,98910.00
2023-03-15T23:06:18.149Z,98919.00
2023-03-15T23:08:47.908Z,98923.00
2023-03-15T23:11:17.108Z,98934.00
2023-03-15T23:13:49.746Z,98944.00
2023-03-15T23:16:20.071Z,98965.00
2023-03-15T23:18:49.728Z,98970.00
2023-03-15T23:21:19.123Z,98977.00
2023-03-15T23:23:49.070Z,98982.00
2023-03-15T23:26:20.466Z,98977.00
2023-03-15T23:28:49.701Z,98985.00
2023-03-15T23:31:19.384Z,98996.00
2023-03-15T23:33:48.755Z,98995.00
2023-03-15T23:36:18.037Z,99000.00
2023-03-15T23:38:47.264Z,99004.00
2023-03-15T23:41:16.470Z,99011.00
2023-03-15T23:43:45.660Z,99018.00
2023-03-15T23:46:15.436Z,99020.00
2023-03-15T23:48:44.781Z,99030.00
2023-03-15T23:51:13.961Z,99030.00
2023-03-15T23:53:43.177Z,99039.00
2023-03-15T23:56:12.519Z,99043.00
2023-03-15T23:58:41.836Z,99044.00
